sensor_id;sensor_type;location;lat;lon;timestamp;pressure;altitude;pressure_sealevel;temperature;humidity
41264;BME280;26998;48.714;9.414;2022-12-07T00:01:24;99335.47;;;2.89;100.00
41264;BME280;26998;48.714;9.414;2022-12-07T00:03:53;99337.16;;;2.90;100.00
41264;BME280;26998;48.714;9.414;2022-12-07T00:06:20;99345.91;;;2.90;100.00
41264;BME280;26998;48.714;9.414;2022-12-07T00:08:47;99344.91;;;2.91;100.00
41264;BME280;26998;48.714;9.414;2022-12-07T00:11:19;99331.72;;;2.91;100.00
41264;BME280;26998;48.714;9.414;2022-12-07T00:13:46;99320.06;;;2.94;100.00
41264;BME280;26998;48.714;9.414;2022-12-07T00:16:16;99320.06;;;2.94;100.00
41264;BME280;26998;48.714;9.414;2022-12-07T00:18:44;99315.75;;;2.93;100.00
41264;BME280;26998;48.714;9.414;2022-12-07T00:21:15;99309.88;;;2.89;100.00
41264;BME280;26998;48.714;9.414;2022-12-07T00:23:44;99316.03;;;2.90;100.00
41264;BME280;26998;48.714;9.414;2022-12-07T00:26:16;99309.22;;;2.87;100.00
41264;BME280;26998;48.714;9.414;2022-12-07T00:28:47;99303.78;;;2.89;100.00
41264;BME280;26998;48.714;9.414;2022-12-07T00:31:16;99295.03;;;2.88;100.00
41264;BME280;26998;48.714;9.414;2022-12-07T00:33:43;99289.91;;;2.87;100.00
41264;BME280;26998;48.714;9.414;2022-12-07T00:36:13;99278.38;;;2.88;100.00
41264;BME280;26998;48.714;9.414;2022-12-07T00:38:40;99274.06;;;2.87;100.00
41264;BME280;26998;48.714;9.414;2022-12-07T00:41:10;99276.44;;;2.90;100.00
41264;BME280;26998;48.714;9.414;2022-12-07T00:43:37;99271.81;;;2.92;100.00
41264;BME280;26998;48.714;9.414;2022-12-07T00:46:04;99270.00;;;2.92;100.00
41264;BME280;26998;48.714;9.414;2022-12-07T00:48:31;99263.91;;;2.92;100.00
41264;BME280;26998;48.714;9.414;2022-12-07T00:50:58;99257.25;;;2.88;100.00
41264;BME280;26998;48.714;9.414;2022-12-07T00:53:27;99257.66;;;2.93;100.00
41264;BME280;26998;48.714;9.414;2022-12-07T00:55:54;99256.97;;;2.91;100.00
41264;BME280;26998;48.714;9.414;2022-12-07T00:58:20;99254.16;;;2.92;100.00
41264;BME280;26998;48.714;9.414;2022-12-07T01:00:47;99241.94;;;2.91;100.00
41264;BME280;26998;48.714;9.414;2022-12-07T01:03:15;99238.47;;;2.91;100.00
41264;BME280;26998;48.714;9.414;2022-12-07T01:05:52;99217.22;;;2.92;100.00
41264;BME280;26998;48.714;9.414;2022-12-07T01:08:19;99214.72;;;2.91;100.00
41264;BME280;26998;48.714;9.414;2022-12-07T01:10:47;99205.28;;;2.88;100.00
41264;BME280;26998;48.714;9.414;2022-12-07T01:13:13;99204.28;;;2.89;100.00
41264;BME280;26998;48.714;9.414;2022-12-07T01:15:44;99202.50;;;2.90;100.00
41264;BME280;26998;48.714;9.414;2022-12-07T01:18:10;99203.75;;;2.86;100.00
41264;BME280;26998;48.714;9.414;2022-12-07T01:20:37;99190.53;;;2.86;100.00
41264;BME280;26998;48.714;9.414;2022-12-07T01:23:04;99192.50;;;2.84;100.00
41264;BME280;26998;48.714;9.414;2022-12-07T01:25:30;99181.38;;;2.90;100.00
41264;BME280;26998;48.714;9.414;2022-12-07T01:27:57;99184.41;;;2.95;100.00
41264;BME280;26998;48.714;9.414;2022-12-07T01:30:23;99175.41;;;2.88;100.00
41264;BME280;26998;48.714;9.414;2022-12-07T01:32:49;99171.22;;;2.85;100.00
41264;BME280;26998;48.714;9.414;2022-12-07T01:35:16;99179.16;;;2.85;100.00
41264;BME280;26998;48.714;9.414;2022-12-07T01:37:42;99189.88;;;2.84;100.00
41264;BME280;26998;48.714;9.414;2022-12-07T01:40:10;99184.88;;;2.81;100.00
41264;BME280;26998;48.714;9.414;2022-12-07T01:42:36;99190.84;;;2.73;100.00
41264;BME280;26998;48.714;9.414;2022-12-07T01:47:48;99172.50;;;2.71;100.00
41264;BME280;26998;48.714;9.414;2022-12-07T01:50:17;99171.66;;;2.71;100.00
41264;BME280;26998;48.714;9.414;2022-12-07T01:52:45;99175.28;;;2.70;100.00
41264;BME280;26998;48.714;9.414;2022-12-07T01:55:15;99187.66;;;2.69;100.00
41264;BME280;26998;48.714;9.414;2022-12-07T01:57:44;99189.31;;;2.70;100.00
41264;BME280;26998;48.714;9.414;2022-12-07T02:00:12;99183.34;;;2.68;100.00
41264;BME280;26998;48.714;9.414;2022-12-07T02:02:47;99181.66;;;2.67;100.00
41264;BME280;26998;48.714;9.414;2022-12-07T02:05:15;99179.19;;;2.66;100.00
41264;BME280;26998;48.714;9.414;2022-12-07T02:07:43;99175.56;;;2.67;100.00
41264;BME280;26998;48.714;9.414;2022-12-07T02:10:26;99182.50;;;2.68;100.00
41264;BME280;26998;48.714;9.414;2022-12-07T02:12:54;99185.28;;;2.66;100.00
41264;BME280;26998;48.714;9.414;2022-12-07T02:15:25;99188.91;;;2.65;100.00
41264;BME280;26998;48.714;9.414;2022-12-07T02:20:57;99176.94;;;2.61;100.00
41264;BME280;26998;48.714;9.414;2022-12-07T02:31:11;99180.84;;;2.57;100.00
41264;BME280;26998;48.714;9.414;2022-12-07T02:33:46;99172.38;;;2.53;100.00
41264;BME280;26998;48.714;9.414;2022-12-07T02:36:26;99174.19;;;2.53;100.00
41264;BME280;26998;48.714;9.414;2022-12-07T02:39:05;99176.94;;;2.51;100.00
41264;BME280;26998;48.714;9.414;2022-12-07T02:41:38;99185.00;;;2.50;100.00
41264;BME280;26998;48.714;9.414;2022-12-07T02:44:13;99188.59;;;2.49;100.00
41264;BME280;26998;48.714;9.414;2022-12-07T02:46:44;99199.16;;;2.49;100.00
41264;BME280;26998;48.714;9.414;2022-12-07T02:49:12;99204.59;;;2.47;100.00
41264;BME280;26998;48.714;9.414;2022-12-07T02:51:41;99214.31;;;2.47;100.00
41264;BME280;26998;48.714;9.414;2022-12-07T02:54:14;99218.59;;;2.48;100.00
41264;BME280;26998;48.714;9.414;2022-12-07T02:56:48;99214.44;;;2.45;100.00
41264;BME280;26998;48.714;9.414;2022-12-07T03:08:10;99224.31;;;2.43;100.00
41264;BME280;26998;48.714;9.414;2022-12-07T03:18:56;99229.84;;;2.40;100.00
41264;BME280;26998;48.714;9.414;2022-12-07T03:21:35;99224.69;;;2.39;100.00
41264;BME280;26998;48.714;9.414;2022-12-07T03:24:07;99229.28;;;2.37;100.00
41264;BME280;26998;48.714;9.414;2022-12-07T03:26:40;99237.19;;;2.37;100.00
41264;BME280;26998;48.714;9.414;2022-12-07T03:29:13;99244.53;;;2.33;100.00
41264;BME280;26998;48.714;9.414;2022-12-07T03:31:45;99268.28;;;2.33;100.00
41264;BME280;26998;48.714;9.414;2022-12-07T03:34:18;99265.78;;;2.31;100.00
41264;BME280;26998;48.714;9.414;2022-12-07T03:36:55;99252.44;;;2.33;100.00
41264;BME280;26998;48.714;9.414;2022-12-07T03:39:34;99257.03;;;2.31;100.00
41264;BME280;26998;48.714;9.414;2022-12-07T03:42:04;99250.09;;;2.30;100.00
41264;BME280;26998;48.714;9.414;2022-12-07T03:44:33;99251.34;;;2.26;100.00
41264;BME280;26998;48.714;9.414;2022-12-07T03:47:37;99270.06;;;2.23;100.00
41264;BME280;26998;48.714;9.414;2022-12-07T03:50:37;99281.28;;;2.15;100.00
41264;BME280;26998;48.714;9.414;2022-12-07T03:53:22;99303.34;;;2.14;100.00
41264;BME280;26998;48.714;9.414;2022-12-07T03:55:50;99299.03;;;2.13;100.00
41264;BME280;26998;48.714;9.414;2022-12-07T03:58:20;99316.66;;;2.13;100.00
41264;BME280;26998;48.714;9.414;2022-12-07T04:00:49;99331.66;;;2.12;100.00
41264;BME280;26998;48.714;9.414;2022-12-07T04:03:16;99342.88;;;2.14;100.00
41264;BME280;26998;48.714;9.414;2022-12-07T04:05:43;99345.25;;;2.17;100.00
41264;BME280;26998;48.714;9.414;2022-12-07T04:08:09;99345.25;;;2.17;100.00
41264;BME280;26998;48.714;9.414;2022-12-07T04:10:36;99320.69;;;2.17;100.00
41264;BME280;26998;48.714;9.414;2022-12-07T04:13:03;99325.97;;;2.17;100.00
41264;BME280;26998;48.714;9.414;2022-12-07T04:15:29;99323.50;;;2.15;100.00
41264;BME280;26998;48.714;9.414;2022-12-07T04:17:55;99319.31;;;2.13;100.00
41264;BME280;26998;48.714;9.414;2022-12-07T04:20:22;99325.69;;;2.10;100.00
41264;BME280;26998;48.714;9.414;2022-12-07T04:22:48;99333.69;;;2.08;100.00
41264;BME280;26998;48.714;9.414;2022-12-07T04:25:15;99337.31;;;2.07;100.00
41264;BME280;26998;48.714;9.414;2022-12-07T04:27:41;99342.75;;;2.06;100.00
41264;BME280;26998;48.714;9.414;2022-12-07T04:30:08;99342.84;;;2.04;100.00
41264;BME280;26998;48.714;9.414;2022-12-07T04:32:34;99347.88;;;2.07;100.00
41264;BME280;26998;48.714;9.414;2022-12-07T04:35:01;99359.94;;;2.10;100.00
41264;BME280;26998;48.714;9.414;2022-12-07T04:37:28;99345.38;;;2.06;100.00
41264;BME280;26998;48.714;9.414;2022-12-07T04:39:54;99350.91;;;2.03;100.00
41264;BME280;26998;48.714;9.414;2022-12-07T04:42:20;99351.28;;;1.98;100.00
41264;BME280;26998;48.714;9.414;2022-12-07T04:44:47;99363.06;;;1.94;100.00
41264;BME280;26998;48.714;9.414;2022-12-07T04:47:13;99361.78;;;1.89;100.00
41264;BME280;26998;48.714;9.414;2022-12-07T04:49:40;99361.06;;;1.87;100.00
41264;BME280;26998;48.714;9.414;2022-12-07T04:52:06;99237.03;;;1.78;100.00
41264;BME280;26998;48.714;9.414;2022-12-07T04:54:33;99228.84;;;1.72;100.00
41264;BME280;26998;48.714;9.414;2022-12-07T04:56:59;99223.53;;;1.62;100.00
41264;BME280;26998;48.714;9.414;2022-12-07T04:59:26;99217.91;;;1.55;100.00
41264;BME280;26998;48.714;9.414;2022-12-07T05:01:52;99216.06;;;1.46;100.00
41264;BME280;26998;48.714;9.414;2022-12-07T05:04:19;99218.81;;;1.35;100.00
41264;BME280;26998;48.714;9.414;2022-12-07T05:06:45;99220.41;;;1.26;100.00
41264;BME280;26998;48.714;9.414;2022-12-07T05:09:12;99208.75;;;1.19;100.00
41264;BME280;26998;48.714;9.414;2022-12-07T05:11:39;99203.47;;;1.19;100.00
41264;BME280;26998;48.714;9.414;2022-12-07T05:14:20;99203.78;;;1.26;100.00
41264;BME280;26998;48.714;9.414;2022-12-07T05:16:49;99184.00;;;1.31;100.00
41264;BME280;26998;48.714;9.414;2022-12-07T05:19:17;99175.13;;;1.32;100.00
41264;BME280;26998;48.714;9.414;2022-12-07T05:21:44;99170.13;;;1.29;100.00
41264;BME280;26998;48.714;9.414;2022-12-07T05:24:13;99163.88;;;1.30;100.00
41264;BME280;26998;48.714;9.414;2022-12-07T05:26:40;99164.16;;;1.27;100.00
41264;BME280;26998;48.714;9.414;2022-12-07T05:29:06;99160.00;;;1.25;100.00
41264;BME280;26998;48.714;9.414;2022-12-07T05:31:33;99156.50;;;1.24;100.00
41264;BME280;26998;48.714;9.414;2022-12-07T05:34:00;99158.88;;;1.27;100.00
41264;BME280;26998;48.714;9.414;2022-12-07T05:36:27;99161.25;;;1.30;100.00
41264;BME280;26998;48.714;9.414;2022-12-07T05:38:53;99163.63;;;1.33;100.00
41264;BME280;26998;48.714;9.414;2022-12-07T05:41:20;99162.78;;;1.33;100.00
41264;BME280;26998;48.714;9.414;2022-12-07T05:43:46;99166.97;;;1.35;100.00
41264;BME280;26998;48.714;9.414;2022-12-07T05:46:12;99170.31;;;1.37;100.00
41264;BME280;26998;48.714;9.414;2022-12-07T05:48:39;99171.00;;;1.39;100.00
41264;BME280;26998;48.714;9.414;2022-12-07T05:51:05;99172.53;;;1.42;100.00
41264;BME280;26998;48.714;9.414;2022-12-07T05:53:32;99172.84;;;1.49;100.00
41264;BME280;26998;48.714;9.414;2022-12-07T05:55:59;99168.66;;;1.46;100.00
41264;BME280;26998;48.714;9.414;2022-12-07T05:58:25;99169.63;;;1.45;100.00
41264;BME280;26998;48.714;9.414;2022-12-07T06:00:54;99173.50;;;1.41;100.00
41264;BME280;26998;48.714;9.414;2022-12-07T06:03:21;99171.13;;;1.38;100.00
41264;BME280;26998;48.714;9.414;2022-12-07T06:05:47;99182.34;;;1.40;100.00
41264;BME280;26998;48.714;9.414;2022-12-07T06:08:14;99180.59;;;1.41;100.00
41264;BME280;26998;48.714;9.414;2022-12-07T06:10:41;99177.94;;;1.41;100.00
41264;BME280;26998;48.714;9.414;2022-12-07T06:13:08;99184.47;;;1.46;100.00
41264;BME280;26998;48.714;9.414;2022-12-07T06:15:36;99188.66;;;1.49;100.00
41264;BME280;26998;48.714;9.414;2022-12-07T06:18:02;99187.28;;;1.54;100.00
41264;BME280;26998;48.714;9.414;2022-12-07T06:20:29;99187.16;;;1.56;100.00
41264;BME280;26998;48.714;9.414;2022-12-07T06:22:55;99183.13;;;1.52;100.00
41264;BME280;26998;48.714;9.414;2022-12-07T06:25:22;99186.00;;;1.49;100.00
41264;BME280;26998;48.714;9.414;2022-12-07T06:27:48;99185.06;;;1.50;100.00
41264;BME280;26998;48.714;9.414;2022-12-07T06:30:15;99190.75;;;1.55;100.00
41264;BME280;26998;48.714;9.414;2022-12-07T06:32:41;99192.81;;;1.51;100.00
41264;BME280;26998;48.714;9.414;2022-12-07T06:35:08;99203.63;;;1.48;100.00
41264;BME280;26998;48.714;9.414;2022-12-07T06:37:34;99206.66;;;1.44;100.00
41264;BME280;26998;48.714;9.414;2022-12-07T06:40:00;99200.78;;;1.40;100.00
41264;BME280;26998;48.714;9.414;2022-12-07T06:42:28;99196.66;;;1.37;100.00
41264;BME280;26998;48.714;9.414;2022-12-07T06:44:54;99193.88;;;1.39;100.00
41264;BME280;26998;48.714;9.414;2022-12-07T06:47:20;99201.66;;;1.41;100.00
41264;BME280;26998;48.714;9.414;2022-12-07T06:50:06;99205.94;;;1.42;100.00
41264;BME280;26998;48.714;9.414;2022-12-07T06:52:33;99202.47;;;1.41;100.00
41264;BME280;26998;48.714;9.414;2022-12-07T06:55:00;99207.75;;;1.41;100.00
41264;BME280;26998;48.714;9.414;2022-12-07T06:57:26;99199.84;;;1.41;100.00
41264;BME280;26998;48.714;9.414;2022-12-07T06:59:53;99208.59;;;1.42;100.00
41264;BME280;26998;48.714;9.414;2022-12-07T07:02:19;99212.88;;;1.43;100.00
41264;BME280;26998;48.714;9.414;2022-12-07T07:04:46;99216.22;;;1.45;100.00
41264;BME280;26998;48.714;9.414;2022-12-07T07:07:12;99222.63;;;1.52;100.00
41264;BME280;26998;48.714;9.414;2022-12-07T07:09:39;99231.25;;;1.54;100.00
41264;BME280;26998;48.714;9.414;2022-12-07T07:12:05;99232.78;;;1.56;100.00
41264;BME280;26998;48.714;9.414;2022-12-07T07:14:32;99221.53;;;1.54;100.00
41264;BME280;26998;48.714;9.414;2022-12-07T07:16:58;99226.94;;;1.53;100.00
41264;BME280;26998;48.714;9.414;2022-12-07T07:19:25;99222.38;;;1.55;100.00
41264;BME280;26998;48.714;9.414;2022-12-07T07:21:51;99226.81;;;1.54;100.00
41264;BME280;26998;48.714;9.414;2022-12-07T07:24:18;99228.34;;;1.57;100.00
41264;BME280;26998;48.714;9.414;2022-12-07T07:26:44;99224.63;;;1.59;100.00
41264;BME280;26998;48.714;9.414;2022-12-07T07:29:11;99224.47;;;1.61;100.00
41264;BME280;26998;48.714;9.414;2022-12-07T07:31:37;99229.47;;;1.64;100.00
41264;BME280;26998;48.714;9.414;2022-12-07T07:34:04;99239.75;;;1.67;100.00
41264;BME280;26998;48.714;9.414;2022-12-07T07:36:30;99235.88;;;1.71;100.00
41264;BME280;26998;48.714;9.414;2022-12-07T07:38:57;99232.03;;;1.75;100.00
41264;BME280;26998;48.714;9.414;2022-12-07T07:41:23;99230.94;;;1.78;100.00
41264;BME280;26998;48.714;9.414;2022-12-07T07:43:49;99229.44;;;1.85;100.00
41264;BME280;26998;48.714;9.414;2022-12-07T07:46:16;99207.25;;;1.88;100.00
41264;BME280;26998;48.714;9.414;2022-12-07T07:48:43;99208.78;;;1.90;100.00
41264;BME280;26998;48.714;9.414;2022-12-07T07:51:09;99205.63;;;1.96;100.00
41264;BME280;26998;48.714;9.414;2022-12-07T07:53:36;99193.00;;;2.00;100.00
41264;BME280;26998;48.714;9.414;2022-12-07T07:56:03;99185.75;;;2.02;100.00
41264;BME280;26998;48.714;9.414;2022-12-07T07:58:30;99176.63;;;2.06;100.00
41264;BME280;26998;48.714;9.414;2022-12-07T08:01:03;99176.22;;;2.11;100.00
41264;BME280;26998;48.714;9.414;2022-12-07T08:03:30;99178.31;;;2.17;100.00
41264;BME280;26998;48.714;9.414;2022-12-07T08:05:57;99181.38;;;2.22;100.00
41264;BME280;26998;48.714;9.414;2022-12-07T08:08:23;99168.75;;;2.25;100.00
41264;BME280;26998;48.714;9.414;2022-12-07T08:10:49;99168.47;;;2.28;100.00
41264;BME280;26998;48.714;9.414;2022-12-07T08:13:16;99156.53;;;2.34;100.00
41264;BME280;26998;48.714;9.414;2022-12-07T08:15:45;99157.09;;;2.38;100.00
41264;BME280;26998;48.714;9.414;2022-12-07T08:18:13;99159.47;;;2.41;100.00
41264;BME280;26998;48.714;9.414;2022-12-07T08:20:41;99153.63;;;2.47;100.00
41264;BME280;26998;48.714;9.414;2022-12-07T08:23:09;99156.81;;;2.50;100.00
41264;BME280;26998;48.714;9.414;2022-12-07T08:25:35;99158.63;;;2.50;100.00
41264;BME280;26998;48.714;9.414;2022-12-07T08:28:02;99158.47;;;2.51;100.00
41264;BME280;26998;48.714;9.414;2022-12-07T08:30:29;99159.16;;;2.63;100.00
41264;BME280;26998;48.714;9.414;2022-12-07T08:32:56;99145.28;;;2.61;100.00
41264;BME280;26998;48.714;9.414;2022-12-07T08:35:24;99128.22;;;2.56;100.00
41264;BME280;26998;48.714;9.414;2022-12-07T08:37:50;99130.41;;;2.70;100.00
41264;BME280;26998;48.714;9.414;2022-12-07T08:40:17;99121.81;;;2.77;100.00
41264;BME280;26998;48.714;9.414;2022-12-07T08:42:43;99101.53;;;2.68;100.00
41264;BME280;26998;48.714;9.414;2022-12-07T08:45:12;99091.25;;;2.75;100.00
41264;BME280;26998;48.714;9.414;2022-12-07T08:47:44;99078.88;;;2.75;100.00
41264;BME280;26998;48.714;9.414;2022-12-07T08:50:12;99084.00;;;2.87;100.00
41264;BME280;26998;48.714;9.414;2022-12-07T08:52:41;99073.81;;;2.92;100.00
41264;BME280;26998;48.714;9.414;2022-12-07T08:55:10;99056.06;;;2.84;100.00
41264;BME280;26998;48.714;9.414;2022-12-07T08:57:37;99052.97;;;2.89;100.00
41264;BME280;26998;48.714;9.414;2022-12-07T09:00:06;99061.44;;;2.92;100.00
41264;BME280;26998;48.714;9.414;2022-12-07T09:02:33;99044.31;;;3.06;100.00
41264;BME280;26998;48.714;9.414;2022-12-07T09:04:59;99038.41;;;3.22;100.00
41264;BME280;26998;48.714;9.414;2022-12-07T09:07:26;99018.78;;;3.24;100.00
41264;BME280;26998;48.714;9.414;2022-12-07T09:09:53;99013.81;;;3.39;100.00
41264;BME280;26998;48.714;9.414;2022-12-07T09:12:19;98996.31;;;3.38;100.00
41264;BME280;26998;48.714;9.414;2022-12-07T09:14:46;98962.38;;;3.43;100.00
41264;BME280;26998;48.714;9.414;2022-12-07T09:17:12;98825.19;;;3.50;100.00
41264;BME280;26998;48.714;9.414;2022-12-07T09:19:39;98826.84;;;3.51;100.00
41264;BME280;26998;48.714;9.414;2022-12-07T09:22:05;98836.69;;;3.67;100.00
41264;BME280;26998;48.714;9.414;2022-12-07T09:24:32;98824.06;;;3.53;100.00
41264;BME280;26998;48.714;9.414;2022-12-07T09:26:58;98836.53;;;3.24;100.00
41264;BME280;26998;48.714;9.414;2022-12-07T09:29:25;98840.00;;;3.43;100.00
41264;BME280;26998;48.714;9.414;2022-12-07T09:31:52;98836.75;;;3.49;100.00
41264;BME280;26998;48.714;9.414;2022-12-07T09:34:20;98825.59;;;3.37;100.00
41264;BME280;26998;48.714;9.414;2022-12-07T09:36:46;98822.25;;;3.53;100.00
41264;BME280;26998;48.714;9.414;2022-12-07T09:39:13;98828.34;;;3.54;100.00
41264;BME280;26998;48.714;9.414;2022-12-07T09:41:41;98830.69;;;3.57;100.00
41264;BME280;26998;48.714;9.414;2022-12-07T09:44:21;98826.34;;;3.30;100.00
41264;BME280;26998;48.714;9.414;2022-12-07T09:46:49;98828.88;;;3.39;100.00
41264;BME280;26998;48.714;9.414;2022-12-07T09:49:21;98821.09;;;3.56;100.00
41264;BME280;26998;48.714;9.414;2022-12-07T09:52:00;98822.53;;;3.68;100.00
41264;BME280;26998;48.714;9.414;2022-12-07T09:54:28;98812.81;;;3.77;100.00
41264;BME280;26998;48.714;9.414;2022-12-07T09:56:55;98809.53;;;3.83;100.00
41264;BME280;26998;48.714;9.414;2022-12-07T09:59:21;98806.81;;;3.66;100.00
41264;BME280;26998;48.714;9.414;2022-12-07T10:01:49;98803.28;;;3.84;100.00
41264;BME280;26998;48.714;9.414;2022-12-07T10:04:19;98796.59;;;3.72;100.00
41264;BME280;26998;48.714;9.414;2022-12-07T10:06:46;98797.50;;;3.80;100.00
41264;BME280;26998;48.714;9.414;2022-12-07T10:09:16;98799.69;;;3.93;100.00
41264;BME280;26998;48.714;9.414;2022-12-07T10:12:04;98793.47;;;4.02;100.00
41264;BME280;26998;48.714;9.414;2022-12-07T10:14:33;98796.34;;;4.17;100.00
41264;BME280;26998;48.714;9.414;2022-12-07T10:17:31;98779.81;;;4.15;100.00
41264;BME280;26998;48.714;9.414;2022-12-07T10:20:19;98786.50;;;4.35;100.00
41264;BME280;26998;48.714;9.414;2022-12-07T10:22:54;98783.63;;;4.21;100.00
41264;BME280;26998;48.714;9.414;2022-12-07T10:25:22;98786.50;;;4.01;100.00
41264;BME280;26998;48.714;9.414;2022-12-07T10:27:59;98776.56;;;3.95;100.00
41264;BME280;26998;48.714;9.414;2022-12-07T10:30:26;98775.81;;;4.11;100.00
41264;BME280;26998;48.714;9.414;2022-12-07T10:32:52;98781.19;;;4.27;100.00
41264;BME280;26998;48.714;9.414;2022-12-07T10:35:30;98775.44;;;4.40;100.00
41264;BME280;26998;48.714;9.414;2022-12-07T10:37:58;98771.00;;;4.49;100.00
41264;BME280;26998;48.714;9.414;2022-12-07T10:40:29;98771.78;;;4.41;100.00
41264;BME280;26998;48.714;9.414;2022-12-07T10:45:32;98767.72;;;4.55;100.00
41264;BME280;26998;48.714;9.414;2022-12-07T10:48:54;98766.72;;;4.56;100.00
41264;BME280;26998;48.714;9.414;2022-12-07T10:51:09;98764.56;;;4.59;100.00
41264;BME280;26998;48.714;9.414;2022-12-07T11:02:02;98750.66;;;4.57;100.00
41264;BME280;26998;48.714;9.414;2022-12-07T11:04:47;98740.06;;;4.57;100.00
41264;BME280;26998;48.714;9.414;2022-12-07T11:07:35;98743.03;;;4.54;100.00
41264;BME280;26998;48.714;9.414;2022-12-07T11:15:49;98735.13;;;4.62;100.00
41264;BME280;26998;48.714;9.414;2022-12-07T11:18:48;98732.78;;;4.43;100.00
41264;BME280;26998;48.714;9.414;2022-12-07T11:21:25;98737.06;;;4.44;100.00
41264;BME280;26998;48.714;9.414;2022-12-07T11:34:24;98720.97;;;4.29;100.00
41264;BME280;26998;48.714;9.414;2022-12-07T11:36:53;98723.63;;;4.21;100.00
41264;BME280;26998;48.714;9.414;2022-12-07T11:39:32;98715.00;;;4.19;100.00
41264;BME280;26998;48.714;9.414;2022-12-07T11:42:26;98713.50;;;4.16;100.00
41264;BME280;26998;48.714;9.414;2022-12-07T11:47:45;98705.25;;;4.20;100.00
41264;BME280;26998;48.714;9.414;2022-12-07T11:50:41;98701.97;;;4.26;100.00
41264;BME280;26998;48.714;9.414;2022-12-07T11:55:43;98694.34;;;4.23;100.00
41264;BME280;26998;48.714;9.414;2022-12-07T12:01:11;98693.88;;;4.35;100.00
41264;BME280;26998;48.714;9.414;2022-12-07T12:03:46;98691.25;;;4.27;100.00
41264;BME280;26998;48.714;9.414;2022-12-07T12:06:19;98691.91;;;4.37;100.00
41264;BME280;26998;48.714;9.414;2022-12-07T12:08:52;98668.78;;;4.39;100.00
41264;BME280;26998;48.714;9.414;2022-12-07T12:17:53;98682.34;;;4.53;100.00
41264;BME280;26998;48.714;9.414;2022-12-07T12:20:31;98675.88;;;4.47;100.00
41264;BME280;26998;48.714;9.414;2022-12-07T12:25:40;98667.41;;;4.35;100.00
41264;BME280;26998;48.714;9.414;2022-12-07T12:28:22;98671.56;;;4.38;100.00
41264;BME280;26998;48.714;9.414;2022-12-07T12:33:58;98659.50;;;4.27;100.00
41264;BME280;26998;48.714;9.414;2022-12-07T12:46:56;98658.13;;;4.23;100.00
41264;BME280;26998;48.714;9.414;2022-12-07T12:51:50;98652.38;;;4.28;100.00
41264;BME280;26998;48.714;9.414;2022-12-07T12:59:42;98647.91;;;4.28;100.00
41264;BME280;26998;48.714;9.414;2022-12-07T13:02:27;98649.88;;;4.18;100.00
41264;BME280;26998;48.714;9.414;2022-12-07T13:15:40;98628.53;;;4.11;100.00
41264;BME280;26998;48.714;9.414;2022-12-07T13:20:52;98625.22;;;4.09;100.00
41264;BME280;26998;48.714;9.414;2022-12-07T13:28:50;98624.41;;;4.09;100.00
41264;BME280;26998;48.714;9.414;2022-12-07T13:33:59;98635.13;;;3.99;100.00
41264;BME280;26998;48.714;9.414;2022-12-07T13:36:32;98636.78;;;4.00;100.00
41264;BME280;26998;48.714;9.414;2022-12-07T13:39:11;98636.28;;;3.97;100.00
41264;BME280;26998;48.714;9.414;2022-12-07T13:41:42;98635.94;;;4.00;100.00
41264;BME280;26998;48.714;9.414;2022-12-07T13:44:12;98627.53;;;4.04;100.00
41264;BME280;26998;48.714;9.414;2022-12-07T13:49:29;98640.06;;;3.94;100.00
41264;BME280;26998;48.714;9.414;2022-12-07T13:54:54;98633.59;;;3.88;100.00
41264;BME280;26998;48.714;9.414;2022-12-07T13:57:22;98628.47;;;3.87;100.00
41264;BME280;26998;48.714;9.414;2022-12-07T13:59:51;98633.59;;;3.88;100.00
41264;BME280;26998;48.714;9.414;2022-12-07T14:04:50;98628.81;;;3.84;100.00
41264;BME280;26998;48.714;9.414;2022-12-07T14:07:25;98634.41;;;3.89;100.00
41264;BME280;26998;48.714;9.414;2022-12-07T14:10:00;98625.47;;;3.82;100.00
41264;BME280;26998;48.714;9.414;2022-12-07T14:12:29;98624.66;;;3.81;100.00
41264;BME280;26998;48.714;9.414;2022-12-07T14:14:56;98630.44;;;3.85;100.00
41264;BME280;26998;48.714;9.414;2022-12-07T14:17:25;98622.19;;;3.88;100.00
41264;BME280;26998;48.714;9.414;2022-12-07T14:19:58;98630.81;;;3.90;100.00
41264;BME280;26998;48.714;9.414;2022-12-07T14:22:36;98620.22;;;3.90;100.00
41264;BME280;26998;48.714;9.414;2022-12-07T14:27:33;98616.41;;;3.84;100.00
41264;BME280;26998;48.714;9.414;2022-12-07T14:30:02;98615.22;;;3.79;100.00
41264;BME280;26998;48.714;9.414;2022-12-07T14:32:29;98617.41;;;3.83;100.00
41264;BME280;26998;48.714;9.414;2022-12-07T14:35:17;98619.72;;;3.86;100.00
41264;BME280;26998;48.714;9.414;2022-12-07T14:37:46;98608.94;;;3.80;100.00
41264;BME280;26998;48.714;9.414;2022-12-07T14:40:19;98621.00;;;3.82;100.00
41264;BME280;26998;48.714;9.414;2022-12-07T14:42:50;98629.44;;;3.78;100.00
41264;BME280;26998;48.714;9.414;2022-12-07T14:45:20;98619.50;;;3.80;100.00
41264;BME280;26998;48.714;9.414;2022-12-07T14:47:47;98624.31;;;3.76;100.00
41264;BME280;26998;48.714;9.414;2022-12-07T14:50:37;98626.81;;;3.78;100.00
41264;BME280;26998;48.714;9.414;2022-12-07T14:53:14;98622.47;;;3.77;100.00
41264;BME280;26998;48.714;9.414;2022-12-07T14:55:48;98625.97;;;3.77;100.00
41264;BME280;26998;48.714;9.414;2022-12-07T14:58:16;98627.13;;;3.75;100.00
41264;BME280;26998;48.714;9.414;2022-12-07T15:00:43;98623.13;;;3.70;100.00
41264;BME280;26998;48.714;9.414;2022-12-07T15:03:10;98618.84;;;3.69;100.00
41264;BME280;26998;48.714;9.414;2022-12-07T15:05:37;98623.28;;;3.69;100.00
41264;BME280;26998;48.714;9.414;2022-12-07T15:08:04;98626.41;;;3.64;100.00
41264;BME280;26998;48.714;9.414;2022-12-07T15:10:33;98621.28;;;3.63;100.00
41264;BME280;26998;48.714;9.414;2022-12-07T15:13:02;98624.75;;;3.63;100.00
41264;BME280;26998;48.714;9.414;2022-12-07T15:15:28;98628.41;;;3.62;100.00
41264;BME280;26998;48.714;9.414;2022-12-07T15:17:57;98621.78;;;3.58;100.00
41264;BME280;26998;48.714;9.414;2022-12-07T15:20:23;98620.09;;;3.57;100.00
41264;BME280;26998;48.714;9.414;2022-12-07T15:22:50;98626.06;;;3.59;100.00